createdAt,value
2023-03-10T00:04:29.356Z,-0.14
2023-03-10T00:09:51.249Z,-0.22
2023-03-10T00:15:13.267Z,-0.11
2023-03-10T00:20:35.138Z,-0.03
2023-03-10T00:25:59.377Z,-0.17
2023-03-10T00:31:24.252Z,-0.29
2023-03-10T00:36:46.143Z,-0.28
2023-03-10T00:42:08.053Z,-0.13
2023-03-10T00:47:29.884Z,-0.05
2023-03-10T00:52:51.736Z,-0.09
2023-03-10T00:58:13.591Z,-0.08
2023-03-10T01:03:35.423Z,-0.10
2023-03-10T01:08:57.319Z,-0.01
2023-03-10T01:14:19.474Z,-0.04
2023-03-10T01:19:41.690Z,-0.08
2023-03-10T01:25:03.841Z,-0.09
2023-03-10T01:30:26.136Z,-0.12
2023-03-10T01:35:48.099Z,-0.24
2023-03-10T01:41:12.036Z,-0.32
2023-03-10T01:46:53.147Z,-0.22
2023-03-10T01:52:20.209Z,-0.41
2023-03-10T01:57:54.240Z,-0.22
2023-03-10T02:03:30.125Z,-0.33
2023-03-10T02:08:56.668Z,-0.28
2023-03-10T02:14:19.060Z,-0.22
2023-03-10T02:19:54.565Z,-0.26
2023-03-10T02:25:34.581Z,-0.34
2023-03-10T02:30:57.616Z,-0.37
2023-03-10T02:36:22.398Z,-0.33
2023-03-10T02:41:45.699Z,-0.32
2023-03-10T02:47:08.034Z,-0.19
2023-03-10T02:52:39.561Z,-0.28
2023-03-10T02:58:01.404Z,-0.17
2023-03-10T03:03:23.646Z,-0.13
2023-03-10T03:08:45.595Z,-0.36
2023-03-10T03:14:07.490Z,-0.21
2023-03-10T03:19:29.973Z,-0.38
2023-03-10T03:24:51.908Z,-0.29
2023-03-10T03:30:17.155Z,-0.36
2023-03-10T03:35:39.115Z,-0.36
2023-03-10T03:41:01.028Z,-0.28
2023-03-10T03:46:22.946Z,-0.20
2023-03-10T03:51:44.841Z,-0.25
2023-03-10T03:57:06.682Z,-0.12
2023-03-10T04:02:28.746Z,-0.19
2023-03-10T04:07:50.705Z,0.05
2023-03-10T04:13:12.550Z,-0.02
2023-03-10T04:18:34.426Z,0.16
2023-03-10T04:23:56.295Z,-0.09
2023-03-10T04:29:18.302Z,-0.08
2023-03-10T04:34:40.217Z,-0.03
2023-03-10T04:40:03.539Z,0.18
2023-03-10T04:45:25.402Z,0.23
2023-03-10T04:50:58.949Z,0.23
2023-03-10T04:56:21.054Z,0.19
2023-03-10T05:01:42.958Z,0.27
2023-03-10T05:07:05.006Z,0.21
2023-03-10T05:12:26.955Z,0.26
2023-03-10T05:17:50.098Z,0.40
2023-03-10T05:23:12.027Z,0.23
2023-03-10T05:28:34.309Z,0.32
2023-03-10T05:33:56.556Z,0.37
2023-03-10T05:39:18.429Z,0.60
2023-03-10T05:44:40.329Z,0.45
2023-03-10T05:50:02.400Z,0.58
2023-03-10T05:55:24.232Z,0.66
2023-03-10T06:00:46.114Z,0.68
2023-03-10T06:06:08.140Z,0.87
2023-03-10T06:11:30.132Z,1.09
2023-03-10T06:16:54.672Z,1.05
2023-03-10T06:22:16.589Z,1.17
2023-03-10T06:27:38.452Z,1.19
2023-03-10T06:33:01.143Z,1.31
2023-03-10T06:38:23.602Z,1.40
2023-03-10T06:43:46.046Z,1.51
2023-03-10T06:49:07.911Z,1.62
2023-03-10T06:54:29.807Z,1.62
2023-03-10T06:59:51.634Z,1.86
2023-03-10T07:05:13.941Z,2.06
2023-03-10T07:10:35.818Z,2.15
2023-03-10T07:15:57.686Z,2.38
2023-03-10T07:21:20.951Z,2.64
2023-03-10T07:26:42.900Z,2.77
2023-03-10T07:32:05.099Z,2.52
2023-03-10T07:37:27.311Z,2.63
2023-03-10T07:42:49.122Z,3.19
2023-03-10T07:48:10.944Z,3.16
2023-03-10T07:53:32.972Z,3.55
2023-03-10T07:58:54.787Z,4.08
2023-03-10T08:04:16.826Z,4.18
2023-03-10T08:09:39.046Z,4.16
2023-03-10T08:15:00.934Z,3.98
2023-03-10T08:20:22.804Z,3.89
2023-03-10T08:25:44.650Z,3.66
2023-03-10T08:31:12.135Z,3.59
2023-03-10T08:36:34.020Z,3.57
2023-03-10T08:41:56.133Z,3.74
2023-03-10T08:47:17.986Z,3.57
2023-03-10T08:52:40.348Z,3.62
2023-03-10T08:58:02.198Z,3.92
2023-03-10T09:03:24.308Z,4.05
2023-03-10T09:08:46.304Z,4.36
2023-03-10T09:14:10.453Z,4.53
2023-03-10T09:19:32.334Z,4.79
2023-03-10T09:24:54.174Z,4.63
2023-03-10T09:30:16.210Z,4.55
2023-03-10T09:35:41.743Z,4.68
2023-03-10T09:41:40.874Z,4.48
2023-03-10T09:47:44.085Z,4.38
2023-03-10T09:53:12.896Z,4.64
2023-03-10T09:58:39.295Z,4.78
2023-03-10T10:04:19.916Z,4.43
2023-03-10T10:09:58.730Z,4.81
2023-03-10T10:15:26.805Z,4.64
2023-03-10T10:20:53.203Z,5.02
2023-03-10T10:26:20.753Z,4.99
2023-03-10T10:31:43.010Z,5.23
2023-03-10T10:37:37.721Z,5.29
2023-03-10T10:43:02.487Z,5.54
2023-03-10T10:48:36.599Z,5.67
2023-03-10T10:54:03.849Z,5.89
2023-03-10T10:59:35.655Z,6.98
2023-03-10T11:05:18.073Z,7.06
2023-03-10T11:10:40.712Z,7.12
2023-03-10T11:16:21.164Z,7.00
2023-03-10T11:21:49.219Z,7.08
2023-03-10T11:27:40.041Z,7.22
2023-03-10T11:33:39.171Z,7.51
2023-03-10T11:39:38.594Z,8.07
2023-03-10T11:45:39.963Z,8.54
2023-03-10T11:51:05.905Z,8.71
2023-03-10T11:56:28.483Z,9.05
2023-03-10T12:02:03.053Z,9.31
2023-03-10T12:07:42.592Z,9.58
2023-03-10T12:13:05.568Z,9.98
2023-03-10T12:18:27.896Z,10.19
2023-03-10T12:23:52.324Z,10.45
2023-03-10T12:29:20.269Z,10.67
2023-03-10T12:34:42.265Z,10.82
2023-03-10T12:40:24.275Z,11.02
2023-03-10T12:45:46.605Z,11.27
2023-03-10T12:51:16.489Z,11.65
2023-03-10T12:56:43.228Z,11.89
2023-03-10T13:02:28.076Z,12.32
2023-03-10T13:07:54.319Z,12.74
2023-03-10T13:13:17.445Z,12.98
2023-03-10T13:18:47.440Z,13.25
2023-03-10T13:24:23.570Z,13.33
2023-03-10T13:30:19.134Z,13.29
2023-03-10T13:35:42.157Z,13.45
2023-03-10T13:41:04.334Z,13.59
2023-03-10T13:46:32.642Z,13.60
2023-03-10T13:51:54.408Z,13.75
2023-03-10T13:57:31.405Z,13.56
2023-03-10T14:02:54.901Z,13.46
2023-03-10T14:08:21.376Z,13.58
2023-03-10T14:13:45.030Z,13.48
2023-03-10T14:19:09.605Z,13.59
2023-03-10T14:24:31.475Z,13.81
2023-03-10T14:30:00.203Z,13.76
2023-03-10T14:35:23.188Z,13.73
2023-03-10T14:40:51.283Z,13.80
2023-03-10T14:46:13.295Z,13.89
2023-03-10T14:51:36.553Z,14.09
2023-03-10T14:56:58.503Z,14.11
2023-03-10T15:02:22.936Z,14.20
2023-03-10T15:07:45.163Z,14.18
2023-03-10T15:13:07.975Z,14.20
2023-03-10T15:18:29.839Z,14.11
2023-03-10T15:23:51.680Z,13.96
2023-03-10T15:29:15.214Z,13.84
2023-03-10T15:34:37.110Z,13.69
2023-03-10T15:39:59.544Z,13.56
2023-03-10T15:45:21.734Z,13.54
2023-03-10T15:50:45.628Z,13.45
2023-03-10T15:56:08.676Z,13.33
2023-03-10T16:01:30.636Z,13.25
2023-03-10T16:06:52.488Z,13.08
2023-03-10T16:12:14.312Z,13.04
2023-03-10T16:17:36.606Z,12.91
2023-03-10T16:22:58.503Z,12.81
2023-03-10T16:28:20.396Z,12.73
2023-03-10T16:33:42.690Z,12.67
2023-03-10T16:39:09.139Z,12.63
2023-03-10T16:44:31.028Z,12.43
2023-03-10T16:49:53.240Z,12.34
2023-03-10T16:55:15.144Z,12.30
2023-03-10T17:00:37.162Z,12.15
2023-03-10T17:05:59.083Z,12.20
2023-03-10T17:11:27.489Z,12.08
2023-03-10T17:16:49.613Z,11.99
2023-03-10T17:22:11.518Z,12.09
2023-03-10T17:27:33.391Z,11.98
2023-03-10T17:32:55.304Z,11.94
2023-03-10T17:38:17.122Z,11.80
2023-03-10T17:43:39.795Z,11.69
2023-03-10T17:49:01.809Z,11.70
2023-03-10T17:54:23.755Z,11.58
2023-03-10T17:59:45.685Z,11.48
2023-03-10T18:05:07.820Z,11.32
2023-03-10T18:10:29.703Z,11.24
2023-03-10T18:15:51.611Z,11.13
2023-03-10T18:21:14.615Z,11.01
2023-03-10T18:26:37.219Z,10.98
2023-03-10T18:31:59.060Z,10.95
2023-03-10T18:37:21.055Z,10.78
2023-03-10T18:42:42.893Z,10.74
2023-03-10T18:48:06.228Z,10.62
2023-03-10T18:53:28.835Z,10.44
2023-03-10T18:58:50.639Z,10.41
2023-03-10T19:04:12.516Z,10.26
2023-03-10T19:09:34.405Z,10.19
2023-03-10T19:14:57.097Z,10.09
2023-03-10T19:20:19.066Z,9.98
2023-03-10T19:25:41.119Z,9.92
2023-03-10T19:31:11.870Z,9.82
2023-03-10T19:36:33.722Z,9.65
2023-03-10T19:41:55.631Z,9.65
2023-03-10T19:47:17.466Z,9.60
2023-03-10T19:52:46.574Z,9.53
2023-03-10T19:58:08.484Z,9.39
2023-03-10T20:03:31.234Z,9.33
2023-03-10T20:08:53.726Z,9.23
2023-03-10T20:14:15.589Z,9.19
2023-03-10T20:19:37.482Z,9.18
2023-03-10T20:24:59.495Z,9.09
2023-03-10T20:30:25.124Z,9.11
2023-03-10T20:35:47.143Z,9.15
2023-03-10T20:41:08.993Z,9.24
2023-03-10T20:46:30.854Z,9.21
2023-03-10T20:51:52.831Z,9.22
2023-03-10T20:57:15.100Z,9.27
2023-03-10T21:02:36.923Z,9.22
2023-03-10T21:07:58.744Z,9.14
2023-03-10T21:13:20.677Z,9.07
2023-03-10T21:18:42.648Z,9.07
2023-03-10T21:24:05.146Z,8.99
2023-03-10T21:29:27.693Z,9.05
2023-03-10T21:34:49.572Z,8.88
2023-03-10T21:40:12.199Z,8.81
2023-03-10T21:45:34.189Z,8.87
2023-03-10T21:50:56.149Z,8.71
2023-03-10T21:56:18.037Z,8.57
2023-03-10T22:01:40.227Z,8.59
2023-03-10T22:07:02.150Z,8.51
2023-03-10T22:12:24.121Z,8.43
2023-03-10T22:17:46.637Z,8.37
2023-03-10T22:23:08.450Z,8.39
2023-03-10T22:28:30.321Z,8.27
2023-03-10T22:33:52.177Z,8.11
2023-03-10T22:39:14.034Z,8.15
2023-03-10T22:44:36.738Z,8.13
2023-03-10T22:49:58.632Z,8.09
2023-03-10T22:55:23.185Z,8.18
2023-03-10T23:00:45.262Z,8.10
2023-03-10T23:06:07.966Z,8.07
2023-03-10T23:11:29.882Z,8.10
2023-03-10T23:16:51.751Z,8.12
2023-03-10T23:22:13.630Z,8.17
2023-03-10T23:27:35.453Z,8.24
2023-03-10T23:32:57.772Z,8.30
2023-03-10T23:38:25.954Z,8.38
2023-03-10T23:43:47.930Z,8.47
2023-03-10T23:49:09.734Z,8.42
2023-03-10T23:54:31.582Z,8.41
2023-03-10T23:59:53.447Z,8.48
